sensor_id;sensor_type;location;lat;lon;timestamp;P1;durP1;ratioP1;P2;durP2;ratioP2
21352;SDS011;10834;52.268;6.770;2023-04-03T00:00:15;4.07;;;1.50;;
21352;SDS011;10834;52.268;6.770;2023-04-03T00:03:01;4.23;;;1.67;;
21352;SDS011;10834;52.268;6.770;2023-04-03T00:05:47;3.40;;;1.30;;
21352;SDS011;10834;52.268;6.770;2023-04-03T00:08:33;4.20;;;1.07;;
21352;SDS011;10834;52.268;6.770;2023-04-03T00:11:20;5.33;;;1.70;;
21352;SDS011;10834;52.268;6.770;2023-04-03T00:14:07;4.40;;;1.60;;
21352;SDS011;10834;52.268;6.770;2023-04-03T00:16:53;2.13;;;1.30;;
21352;SDS011;10834;52.268;6.770;2023-04-03T00:19:39;2.83;;;1.10;;
21352;SDS011;10834;52.268;6.770;2023-04-03T00:22:25;5.83;;;1.47;;
21352;SDS011;10834;52.268;6.770;2023-04-03T00:25:13;6.17;;;1.50;;
21352;SDS011;10834;52.268;6.770;2023-04-03T00:28:00;3.50;;;1.50;;
21352;SDS011;10834;52.268;6.770;2023-04-03T00:30:46;3.67;;;1.60;;
21352;SDS011;10834;52.268;6.770;2023-04-03T00:33:33;3.73;;;1.50;;
21352;SDS011;10834;52.268;6.770;2023-04-03T00:36:20;6.90;;;2.30;;
21352;SDS011;10834;52.268;6.770;2023-04-03T00:39:06;6.50;;;2.10;;
21352;SDS011;10834;52.268;6.770;2023-04-03T00:41:51;5.33;;;2.80;;
21352;SDS011;10834;52.268;6.770;2023-04-03T00:47:24;3.73;;;1.60;;
21352;SDS011;10834;52.268;6.770;2023-04-03T00:50:10;9.43;;;2.00;;
21352;SDS011;10834;52.268;6.770;2023-04-03T00:52:56;3.20;;;1.37;;
21352;SDS011;10834;52.268;6.770;2023-04-03T00:55:43;2.23;;;1.53;;
21352;SDS011;10834;52.268;6.770;2023-04-03T00:59:19;2.10;;;1.00;;
21352;SDS011;10834;52.268;6.770;2023-04-03T01:01:49;3.13;;;1.23;;
21352;SDS011;10834;52.268;6.770;2023-04-03T01:07:26;2.70;;;1.80;;
21352;SDS011;10834;52.268;6.770;2023-04-03T01:10:15;3.27;;;1.73;;
21352;SDS011;10834;52.268;6.770;2023-04-03T01:13:02;4.87;;;1.57;;
21352;SDS011;10834;52.268;6.770;2023-04-03T01:16:20;5.70;;;1.67;;
21352;SDS011;10834;52.268;6.770;2023-04-03T01:19:07;3.23;;;1.80;;
21352;SDS011;10834;52.268;6.770;2023-04-03T01:22:18;3.37;;;1.67;;
21352;SDS011;10834;52.268;6.770;2023-04-03T01:25:08;2.50;;;1.07;;
21352;SDS011;10834;52.268;6.770;2023-04-03T01:27:54;2.60;;;1.80;;
21352;SDS011;10834;52.268;6.770;2023-04-03T01:33:57;3.73;;;1.60;;
21352;SDS011;10834;52.268;6.770;2023-04-03T01:36:44;3.77;;;1.27;;
21352;SDS011;10834;52.268;6.770;2023-04-03T01:39:30;4.70;;;1.43;;
21352;SDS011;10834;52.268;6.770;2023-04-03T01:42:16;5.90;;;1.47;;
21352;SDS011;10834;52.268;6.770;2023-04-03T01:45:02;7.57;;;1.67;;
21352;SDS011;10834;52.268;6.770;2023-04-03T01:47:48;1.50;;;1.33;;
21352;SDS011;10834;52.268;6.770;2023-04-03T01:50:35;3.20;;;1.20;;
21352;SDS011;10834;52.268;6.770;2023-04-03T01:53:21;6.67;;;2.23;;
21352;SDS011;10834;52.268;6.770;2023-04-03T01:56:07;2.80;;;1.87;;
21352;SDS011;10834;52.268;6.770;2023-04-03T01:58:53;6.60;;;1.30;;
21352;SDS011;10834;52.268;6.770;2023-04-03T02:01:39;3.03;;;1.57;;
21352;SDS011;10834;52.268;6.770;2023-04-03T02:04:25;5.90;;;1.63;;
21352;SDS011;10834;52.268;6.770;2023-04-03T02:07:11;3.27;;;1.40;;
21352;SDS011;10834;52.268;6.770;2023-04-03T02:09:57;2.73;;;1.40;;
21352;SDS011;10834;52.268;6.770;2023-04-03T02:12:43;4.00;;;1.50;;
21352;SDS011;10834;52.268;6.770;2023-04-03T02:15:29;7.03;;;1.57;;
21352;SDS011;10834;52.268;6.770;2023-04-03T02:18:15;2.43;;;1.50;;
21352;SDS011;10834;52.268;6.770;2023-04-03T02:21:01;4.17;;;1.53;;
21352;SDS011;10834;52.268;6.770;2023-04-03T02:23:48;2.70;;;1.50;;
21352;SDS011;10834;52.268;6.770;2023-04-03T02:26:34;4.83;;;1.00;;
21352;SDS011;10834;52.268;6.770;2023-04-03T02:29:20;2.47;;;1.17;;
21352;SDS011;10834;52.268;6.770;2023-04-03T02:32:06;5.77;;;1.40;;
21352;SDS011;10834;52.268;6.770;2023-04-03T02:34:52;4.33;;;1.40;;
21352;SDS011;10834;52.268;6.770;2023-04-03T02:37:38;2.07;;;1.10;;
21352;SDS011;10834;52.268;6.770;2023-04-03T02:40:24;1.97;;;1.60;;
21352;SDS011;10834;52.268;6.770;2023-04-03T02:43:10;4.00;;;1.50;;
21352;SDS011;10834;52.268;6.770;2023-04-03T02:45:56;4.67;;;1.37;;
21352;SDS011;10834;52.268;6.770;2023-04-03T02:48:42;2.40;;;1.20;;
21352;SDS011;10834;52.268;6.770;2023-04-03T02:51:28;3.17;;;1.47;;
21352;SDS011;10834;52.268;6.770;2023-04-03T02:54:14;6.87;;;2.03;;
21352;SDS011;10834;52.268;6.770;2023-04-03T02:57:01;5.97;;;1.40;;
21352;SDS011;10834;52.268;6.770;2023-04-03T02:59:47;8.67;;;1.63;;
21352;SDS011;10834;52.268;6.770;2023-04-03T03:02:33;3.33;;;1.80;;
21352;SDS011;10834;52.268;6.770;2023-04-03T03:05:19;6.93;;;1.70;;
21352;SDS011;10834;52.268;6.770;2023-04-03T03:08:05;3.40;;;1.70;;
21352;SDS011;10834;52.268;6.770;2023-04-03T03:10:51;3.53;;;1.30;;
21352;SDS011;10834;52.268;6.770;2023-04-03T03:13:37;4.27;;;1.83;;
21352;SDS011;10834;52.268;6.770;2023-04-03T03:16:24;3.90;;;1.60;;
21352;SDS011;10834;52.268;6.770;2023-04-03T03:19:10;5.30;;;1.43;;
21352;SDS011;10834;52.268;6.770;2023-04-03T03:21:56;3.33;;;1.60;;
21352;SDS011;10834;52.268;6.770;2023-04-03T03:24:42;6.23;;;1.77;;
21352;SDS011;10834;52.268;6.770;2023-04-03T03:27:28;5.60;;;1.80;;
21352;SDS011;10834;52.268;6.770;2023-04-03T03:30:14;6.43;;;2.97;;
21352;SDS011;10834;52.268;6.770;2023-04-03T03:33:00;6.00;;;1.50;;
21352;SDS011;10834;52.268;6.770;2023-04-03T03:35:47;7.13;;;1.97;;
21352;SDS011;10834;52.268;6.770;2023-04-03T03:38:33;6.07;;;1.30;;
21352;SDS011;10834;52.268;6.770;2023-04-03T03:41:19;3.10;;;1.30;;
21352;SDS011;10834;52.268;6.770;2023-04-03T03:44:05;7.40;;;1.83;;
21352;SDS011;10834;52.268;6.770;2023-04-03T03:46:51;5.73;;;1.47;;
21352;SDS011;10834;52.268;6.770;2023-04-03T03:49:37;6.43;;;2.10;;
21352;SDS011;10834;52.268;6.770;2023-04-03T03:52:23;5.77;;;2.30;;
21352;SDS011;10834;52.268;6.770;2023-04-03T03:55:09;5.60;;;1.37;;
21352;SDS011;10834;52.268;6.770;2023-04-03T03:57:55;9.23;;;2.03;;
21352;SDS011;10834;52.268;6.770;2023-04-03T04:00:41;6.13;;;1.73;;
21352;SDS011;10834;52.268;6.770;2023-04-03T04:03:27;2.70;;;1.80;;
21352;SDS011;10834;52.268;6.770;2023-04-03T04:06:13;4.70;;;1.50;;
21352;SDS011;10834;52.268;6.770;2023-04-03T04:09:00;2.27;;;1.50;;
21352;SDS011;10834;52.268;6.770;2023-04-03T04:11:46;6.10;;;1.60;;
21352;SDS011;10834;52.268;6.770;2023-04-03T04:14:32;3.27;;;1.10;;
21352;SDS011;10834;52.268;6.770;2023-04-03T04:17:18;9.30;;;1.37;;
21352;SDS011;10834;52.268;6.770;2023-04-03T04:20:05;4.73;;;1.47;;
21352;SDS011;10834;52.268;6.770;2023-04-03T04:22:51;4.67;;;1.70;;
21352;SDS011;10834;52.268;6.770;2023-04-03T04:25:37;6.20;;;1.50;;
21352;SDS011;10834;52.268;6.770;2023-04-03T04:28:23;4.67;;;1.70;;
21352;SDS011;10834;52.268;6.770;2023-04-03T04:31:09;3.73;;;1.50;;
21352;SDS011;10834;52.268;6.770;2023-04-03T04:33:55;5.63;;;1.50;;
21352;SDS011;10834;52.268;6.770;2023-04-03T04:36:41;3.67;;;1.70;;
21352;SDS011;10834;52.268;6.770;2023-04-03T04:39:27;4.37;;;1.70;;
21352;SDS011;10834;52.268;6.770;2023-04-03T04:42:14;2.17;;;1.10;;
21352;SDS011;10834;52.268;6.770;2023-04-03T04:45:00;4.63;;;1.97;;
21352;SDS011;10834;52.268;6.770;2023-04-03T04:47:46;4.70;;;1.90;;
21352;SDS011;10834;52.268;6.770;2023-04-03T04:50:32;5.77;;;1.57;;
21352;SDS011;10834;52.268;6.770;2023-04-03T04:53:18;3.70;;;1.50;;
21352;SDS011;10834;52.268;6.770;2023-04-03T04:56:04;9.60;;;2.10;;
21352;SDS011;10834;52.268;6.770;2023-04-03T04:58:50;6.37;;;1.80;;
21352;SDS011;10834;52.268;6.770;2023-04-03T05:01:36;2.73;;;1.70;;
21352;SDS011;10834;52.268;6.770;2023-04-03T05:04:22;5.00;;;1.67;;
21352;SDS011;10834;52.268;6.770;2023-04-03T05:07:08;2.77;;;1.57;;
21352;SDS011;10834;52.268;6.770;2023-04-03T05:09:54;4.33;;;1.60;;
21352;SDS011;10834;52.268;6.770;2023-04-03T05:12:40;4.40;;;1.57;;
21352;SDS011;10834;52.268;6.770;2023-04-03T05:15:26;3.60;;;1.20;;
21352;SDS011;10834;52.268;6.770;2023-04-03T05:18:13;3.63;;;1.27;;
21352;SDS011;10834;52.268;6.770;2023-04-03T05:20:59;8.20;;;1.73;;
21352;SDS011;10834;52.268;6.770;2023-04-03T05:23:45;5.23;;;2.53;;
21352;SDS011;10834;52.268;6.770;2023-04-03T05:26:31;5.60;;;1.60;;
21352;SDS011;10834;52.268;6.770;2023-04-03T05:29:17;4.70;;;1.90;;
21352;SDS011;10834;52.268;6.770;2023-04-03T05:32:03;3.87;;;1.50;;
21352;SDS011;10834;52.268;6.770;2023-04-03T05:34:50;2.63;;;1.80;;
21352;SDS011;10834;52.268;6.770;2023-04-03T05:37:37;1.97;;;1.20;;
21352;SDS011;10834;52.268;6.770;2023-04-03T05:40:23;3.53;;;1.67;;
21352;SDS011;10834;52.268;6.770;2023-04-03T05:43:09;4.57;;;1.80;;
21352;SDS011;10834;52.268;6.770;2023-04-03T05:45:55;7.37;;;1.93;;
21352;SDS011;10834;52.268;6.770;2023-04-03T05:48:41;5.53;;;1.87;;
21352;SDS011;10834;52.268;6.770;2023-04-03T05:51:29;6.80;;;1.77;;
21352;SDS011;10834;52.268;6.770;2023-04-03T05:54:20;5.03;;;1.93;;
21352;SDS011;10834;52.268;6.770;2023-04-03T05:57:08;6.50;;;1.60;;
21352;SDS011;10834;52.268;6.770;2023-04-03T05:59:54;5.90;;;1.87;;
21352;SDS011;10834;52.268;6.770;2023-04-03T06:02:41;4.13;;;1.80;;
21352;SDS011;10834;52.268;6.770;2023-04-03T06:05:27;6.17;;;1.87;;
21352;SDS011;10834;52.268;6.770;2023-04-03T06:08:13;3.80;;;1.80;;
21352;SDS011;10834;52.268;6.770;2023-04-03T06:10:59;1.77;;;1.43;;
21352;SDS011;10834;52.268;6.770;2023-04-03T06:13:47;4.87;;;1.90;;
21352;SDS011;10834;52.268;6.770;2023-04-03T06:16:33;3.30;;;1.70;;
21352;SDS011;10834;52.268;6.770;2023-04-03T06:19:19;3.17;;;1.83;;
21352;SDS011;10834;52.268;6.770;2023-04-03T06:22:06;5.93;;;2.03;;
21352;SDS011;10834;52.268;6.770;2023-04-03T06:24:52;2.73;;;1.27;;
21352;SDS011;10834;52.268;6.770;2023-04-03T06:27:38;3.17;;;1.40;;
21352;SDS011;10834;52.268;6.770;2023-04-03T06:30:24;4.10;;;1.70;;
21352;SDS011;10834;52.268;6.770;2023-04-03T06:33:11;4.00;;;1.50;;
21352;SDS011;10834;52.268;6.770;2023-04-03T06:35:57;6.40;;;1.33;;
21352;SDS011;10834;52.268;6.770;2023-04-03T06:38:44;4.00;;;1.53;;
21352;SDS011;10834;52.268;6.770;2023-04-03T06:41:30;5.33;;;1.63;;
21352;SDS011;10834;52.268;6.770;2023-04-03T06:44:16;2.60;;;1.27;;
21352;SDS011;10834;52.268;6.770;2023-04-03T06:47:02;4.80;;;1.20;;
21352;SDS011;10834;52.268;6.770;2023-04-03T06:49:48;3.93;;;1.10;;
21352;SDS011;10834;52.268;6.770;2023-04-03T06:52:35;1.57;;;1.40;;
21352;SDS011;10834;52.268;6.770;2023-04-03T06:55:21;2.37;;;1.40;;
21352;SDS011;10834;52.268;6.770;2023-04-03T06:58:07;2.00;;;1.07;;
21352;SDS011;10834;52.268;6.770;2023-04-03T07:00:53;5.63;;;1.40;;
21352;SDS011;10834;52.268;6.770;2023-04-03T07:03:39;5.47;;;1.73;;
21352;SDS011;10834;52.268;6.770;2023-04-03T07:06:26;6.03;;;1.03;;
21352;SDS011;10834;52.268;6.770;2023-04-03T07:09:12;4.53;;;1.20;;
21352;SDS011;10834;52.268;6.770;2023-04-03T07:11:59;3.03;;;1.20;;
21352;SDS011;10834;52.268;6.770;2023-04-03T07:14:46;3.47;;;1.17;;
21352;SDS011;10834;52.268;6.770;2023-04-03T07:17:32;5.63;;;1.47;;
21352;SDS011;10834;52.268;6.770;2023-04-03T07:20:18;4.10;;;1.30;;
21352;SDS011;10834;52.268;6.770;2023-04-03T07:23:04;3.33;;;1.10;;
21352;SDS011;10834;52.268;6.770;2023-04-03T07:25:51;4.67;;;1.00;;
21352;SDS011;10834;52.268;6.770;2023-04-03T07:28:37;5.67;;;1.00;;
21352;SDS011;10834;52.268;6.770;2023-04-03T07:31:25;3.17;;;1.10;;
21352;SDS011;10834;52.268;6.770;2023-04-03T07:34:11;4.33;;;1.13;;
21352;SDS011;10834;52.268;6.770;2023-04-03T07:36:57;3.60;;;1.00;;
21352;SDS011;10834;52.268;6.770;2023-04-03T07:39:44;3.47;;;1.20;;
21352;SDS011;10834;52.268;6.770;2023-04-03T07:42:30;3.45;;;1.23;;
21352;SDS011;10834;52.268;6.770;2023-04-03T07:45:16;5.80;;;1.35;;
21352;SDS011;10834;52.268;6.770;2023-04-03T07:48:03;1.50;;;1.00;;
21352;SDS011;10834;52.268;6.770;2023-04-03T07:50:49;3.00;;;1.23;;
21352;SDS011;10834;52.268;6.770;2023-04-03T07:53:35;2.78;;;1.00;;
21352;SDS011;10834;52.268;6.770;2023-04-03T07:56:22;4.60;;;1.27;;
21352;SDS011;10834;52.268;6.770;2023-04-03T07:59:09;3.20;;;1.30;;
21352;SDS011;10834;52.268;6.770;2023-04-03T08:01:55;2.38;;;1.40;;
21352;SDS011;10834;52.268;6.770;2023-04-03T08:04:42;3.58;;;1.13;;
21352;SDS011;10834;52.268;6.770;2023-04-03T08:07:28;2.45;;;1.42;;
21352;SDS011;10834;52.268;6.770;2023-04-03T08:10:14;2.35;;;1.52;;
21352;SDS011;10834;52.268;6.770;2023-04-03T08:13:01;2.25;;;1.27;;
21352;SDS011;10834;52.268;6.770;2023-04-03T08:15:47;3.20;;;1.20;;
21352;SDS011;10834;52.268;6.770;2023-04-03T08:18:33;2.95;;;1.30;;
21352;SDS011;10834;52.268;6.770;2023-04-03T08:21:20;2.78;;;1.17;;
21352;SDS011;10834;52.268;6.770;2023-04-03T08:24:07;3.33;;;1.50;;
21352;SDS011;10834;52.268;6.770;2023-04-03T08:26:54;1.63;;;0.77;;
21352;SDS011;10834;52.268;6.770;2023-04-03T08:29:40;3.88;;;1.08;;
21352;SDS011;10834;52.268;6.770;2023-04-03T08:32:26;1.85;;;1.00;;
21352;SDS011;10834;52.268;6.770;2023-04-03T08:35:13;2.97;;;1.40;;
21352;SDS011;10834;52.268;6.770;2023-04-03T08:37:59;2.33;;;0.90;;
21352;SDS011;10834;52.268;6.770;2023-04-03T08:40:46;3.58;;;1.35;;
21352;SDS011;10834;52.268;6.770;2023-04-03T08:43:37;2.67;;;0.93;;
21352;SDS011;10834;52.268;6.770;2023-04-03T08:47:00;2.17;;;1.20;;
21352;SDS011;10834;52.268;6.770;2023-04-03T08:50:00;2.08;;;1.25;;
21352;SDS011;10834;52.268;6.770;2023-04-03T08:52:55;1.77;;;0.93;;
21352;SDS011;10834;52.268;6.770;2023-04-03T08:55:45;1.52;;;0.90;;
21352;SDS011;10834;52.268;6.770;2023-04-03T08:58:35;0.82;;;0.68;;
21352;SDS011;10834;52.268;6.770;2023-04-03T09:01:34;1.70;;;0.80;;
21352;SDS011;10834;52.268;6.770;2023-04-03T09:04:24;2.60;;;0.85;;
21352;SDS011;10834;52.268;6.770;2023-04-03T09:07:18;1.80;;;0.90;;
21352;SDS011;10834;52.268;6.770;2023-04-03T09:10:18;1.08;;;0.90;;
21352;SDS011;10834;52.268;6.770;2023-04-03T09:16:19;2.05;;;0.80;;
21352;SDS011;10834;52.268;6.770;2023-04-03T09:22:28;1.27;;;0.80;;
21352;SDS011;10834;52.268;6.770;2023-04-03T09:25:25;3.13;;;1.60;;
21352;SDS011;10834;52.268;6.770;2023-04-03T09:28:18;2.60;;;1.25;;
21352;SDS011;10834;52.268;6.770;2023-04-03T09:31:16;1.58;;;1.13;;
21352;SDS011;10834;52.268;6.770;2023-04-03T09:37:03;1.52;;;1.17;;
21352;SDS011;10834;52.268;6.770;2023-04-03T09:39:54;1.92;;;1.02;;
21352;SDS011;10834;52.268;6.770;2023-04-03T09:42:41;6.50;;;0.90;;
21352;SDS011;10834;52.268;6.770;2023-04-03T09:45:34;2.13;;;0.90;;
21352;SDS011;10834;52.268;6.770;2023-04-03T09:48:22;3.72;;;1.00;;
21352;SDS011;10834;52.268;6.770;2023-04-03T09:51:13;2.67;;;1.00;;
21352;SDS011;10834;52.268;6.770;2023-04-03T09:54:01;1.70;;;1.00;;
21352;SDS011;10834;52.268;6.770;2023-04-03T09:57:12;2.25;;;0.88;;
21352;SDS011;10834;52.268;6.770;2023-04-03T10:00:00;1.55;;;0.95;;
21352;SDS011;10834;52.268;6.770;2023-04-03T10:02:51;1.13;;;0.70;;
21352;SDS011;10834;52.268;6.770;2023-04-03T10:05:41;1.50;;;0.98;;
21352;SDS011;10834;52.268;6.770;2023-04-03T10:11:16;2.08;;;0.80;;
21352;SDS011;10834;52.268;6.770;2023-04-03T10:14:04;1.17;;;0.70;;
21352;SDS011;10834;52.268;6.770;2023-04-03T10:16:57;0.82;;;0.55;;
21352;SDS011;10834;52.268;6.770;2023-04-03T10:20:12;3.13;;;1.00;;
21352;SDS011;10834;52.268;6.770;2023-04-03T10:36:02;2.05;;;0.85;;
21352;SDS011;10834;52.268;6.770;2023-04-03T10:48:31;1.95;;;0.77;;
21352;SDS011;10834;52.268;6.770;2023-04-03T10:51:45;2.30;;;1.00;;
21352;SDS011;10834;52.268;6.770;2023-04-03T10:55:02;1.40;;;0.70;;
21352;SDS011;10834;52.268;6.770;2023-04-03T10:58:04;1.63;;;0.55;;
21352;SDS011;10834;52.268;6.770;2023-04-03T11:00:52;1.92;;;1.00;;
21352;SDS011;10834;52.268;6.770;2023-04-03T11:03:44;1.48;;;0.88;;
21352;SDS011;10834;52.268;6.770;2023-04-03T11:07:08;1.65;;;0.80;;
21352;SDS011;10834;52.268;6.770;2023-04-03T11:09:50;2.13;;;0.60;;
21352;SDS011;10834;52.268;6.770;2023-04-03T11:13:01;0.88;;;0.52;;
21352;SDS011;10834;52.268;6.770;2023-04-03T11:15:56;2.20;;;0.70;;
21352;SDS011;10834;52.268;6.770;2023-04-03T11:18:48;1.67;;;0.60;;
21352;SDS011;10834;52.268;6.770;2023-04-03T11:24:29;1.38;;;0.88;;
21352;SDS011;10834;52.268;6.770;2023-04-03T11:27:19;1.63;;;0.68;;
21352;SDS011;10834;52.268;6.770;2023-04-03T11:30:52;3.60;;;0.95;;
21352;SDS011;10834;52.268;6.770;2023-04-03T11:33:31;2.80;;;0.80;;
21352;SDS011;10834;52.268;6.770;2023-04-03T11:39:40;5.60;;;0.97;;
21352;SDS011;10834;52.268;6.770;2023-04-03T11:42:38;2.90;;;0.75;;
21352;SDS011;10834;52.268;6.770;2023-04-03T11:45:32;1.57;;;0.73;;
21352;SDS011;10834;52.268;6.770;2023-04-03T11:54:35;1.07;;;0.83;;
21352;SDS011;10834;52.268;6.770;2023-04-03T11:58:15;4.00;;;2.20;;
21352;SDS011;10834;52.268;6.770;2023-04-03T12:12:28;2.20;;;0.93;;
21352;SDS011;10834;52.268;6.770;2023-04-03T12:15:21;2.63;;;0.97;;
21352;SDS011;10834;52.268;6.770;2023-04-03T12:24:24;4.57;;;1.00;;
21352;SDS011;10834;52.268;6.770;2023-04-03T12:30:13;1.23;;;0.67;;
21352;SDS011;10834;52.268;6.770;2023-04-03T12:33:20;7.37;;;1.00;;
21352;SDS011;10834;52.268;6.770;2023-04-03T12:37:00;1.40;;;1.10;;
21352;SDS011;10834;52.268;6.770;2023-04-03T12:42:54;2.17;;;0.83;;
21352;SDS011;10834;52.268;6.770;2023-04-03T12:48:53;2.73;;;0.90;;
21352;SDS011;10834;52.268;6.770;2023-04-03T12:51:42;1.20;;;0.93;;
21352;SDS011;10834;52.268;6.770;2023-04-03T12:54:37;2.00;;;1.00;;
21352;SDS011;10834;52.268;6.770;2023-04-03T12:57:27;2.53;;;1.00;;
21352;SDS011;10834;52.268;6.770;2023-04-03T13:00:27;4.07;;;0.90;;
21352;SDS011;10834;52.268;6.770;2023-04-03T13:03:24;1.33;;;0.90;;
21352;SDS011;10834;52.268;6.770;2023-04-03T13:12:11;1.23;;;1.07;;
21352;SDS011;10834;52.268;6.770;2023-04-03T13:15:12;2.97;;;1.30;;
21352;SDS011;10834;52.268;6.770;2023-04-03T13:18:01;3.10;;;0.90;;
21352;SDS011;10834;52.268;6.770;2023-04-03T13:20:48;2.23;;;0.90;;
21352;SDS011;10834;52.268;6.770;2023-04-03T13:23:36;2.03;;;1.00;;
21352;SDS011;10834;52.268;6.770;2023-04-03T13:26:25;1.53;;;0.83;;
21352;SDS011;10834;52.268;6.770;2023-04-03T13:29:34;1.90;;;0.90;;
21352;SDS011;10834;52.268;6.770;2023-04-03T13:32:24;1.73;;;0.73;;
21352;SDS011;10834;52.268;6.770;2023-04-03T13:35:25;2.37;;;0.87;;
21352;SDS011;10834;52.268;6.770;2023-04-03T13:41:49;2.43;;;0.90;;
21352;SDS011;10834;52.268;6.770;2023-04-03T13:44:16;3.43;;;0.90;;
21352;SDS011;10834;52.268;6.770;2023-04-03T13:50:14;3.93;;;0.80;;
21352;SDS011;10834;52.268;6.770;2023-04-03T13:53:11;3.13;;;1.10;;
21352;SDS011;10834;52.268;6.770;2023-04-03T13:59:02;4.93;;;1.10;;
21352;SDS011;10834;52.268;6.770;2023-04-03T14:04:54;2.27;;;0.63;;
21352;SDS011;10834;52.268;6.770;2023-04-03T14:07:45;1.73;;;0.80;;
21352;SDS011;10834;52.268;6.770;2023-04-03T14:10:31;1.47;;;0.80;;
21352;SDS011;10834;52.268;6.770;2023-04-03T14:13:18;3.60;;;1.33;;
21352;SDS011;10834;52.268;6.770;2023-04-03T14:16:05;7.47;;;1.37;;
21352;SDS011;10834;52.268;6.770;2023-04-03T14:18:51;2.70;;;0.90;;
21352;SDS011;10834;52.268;6.770;2023-04-03T14:21:38;2.10;;;0.97;;
21352;SDS011;10834;52.268;6.770;2023-04-03T14:24:24;4.30;;;0.83;;
21352;SDS011;10834;52.268;6.770;2023-04-03T14:27:13;4.50;;;1.20;;
21352;SDS011;10834;52.268;6.770;2023-04-03T14:30:08;2.53;;;0.80;;
21352;SDS011;10834;52.268;6.770;2023-04-03T14:32:59;3.37;;;0.60;;
21352;SDS011;10834;52.268;6.770;2023-04-03T14:35:46;4.73;;;0.90;;
21352;SDS011;10834;52.268;6.770;2023-04-03T14:38:33;2.13;;;1.20;;
21352;SDS011;10834;52.268;6.770;2023-04-03T14:41:20;2.10;;;1.47;;
21352;SDS011;10834;52.268;6.770;2023-04-03T14:44:08;3.83;;;0.70;;
21352;SDS011;10834;52.268;6.770;2023-04-03T14:46:55;4.23;;;1.90;;
21352;SDS011;10834;52.268;6.770;2023-04-03T14:49:42;2.53;;;0.80;;
21352;SDS011;10834;52.268;6.770;2023-04-03T14:52:32;1.63;;;0.63;;
21352;SDS011;10834;52.268;6.770;2023-04-03T14:55:22;2.20;;;0.90;;
21352;SDS011;10834;52.268;6.770;2023-04-03T14:58:13;4.20;;;0.80;;
21352;SDS011;10834;52.268;6.770;2023-04-03T15:01:03;1.97;;;1.00;;
21352;SDS011;10834;52.268;6.770;2023-04-03T15:03:49;3.13;;;1.07;;
21352;SDS011;10834;52.268;6.770;2023-04-03T15:06:35;1.67;;;1.00;;
21352;SDS011;10834;52.268;6.770;2023-04-03T15:09:23;1.23;;;0.67;;
21352;SDS011;10834;52.268;6.770;2023-04-03T15:12:10;1.43;;;0.90;;
21352;SDS011;10834;52.268;6.770;2023-04-03T15:14:57;2.13;;;0.70;;
21352;SDS011;10834;52.268;6.770;2023-04-03T15:17:43;1.13;;;0.60;;
21352;SDS011;10834;52.268;6.770;2023-04-03T15:20:30;1.53;;;0.70;;
21352;SDS011;10834;52.268;6.770;2023-04-03T15:23:18;2.63;;;0.70;;
21352;SDS011;10834;52.268;6.770;2023-04-03T15:26:04;5.77;;;1.10;;
21352;SDS011;10834;52.268;6.770;2023-04-03T15:28:51;1.03;;;0.70;;
21352;SDS011;10834;52.268;6.770;2023-04-03T15:31:37;2.80;;;0.80;;
21352;SDS011;10834;52.268;6.770;2023-04-03T15:34:23;2.60;;;0.70;;
21352;SDS011;10834;52.268;6.770;2023-04-03T15:37:09;3.60;;;1.17;;
21352;SDS011;10834;52.268;6.770;2023-04-03T15:39:55;2.03;;;0.80;;
21352;SDS011;10834;52.268;6.770;2023-04-03T15:42:41;2.93;;;0.80;;
21352;SDS011;10834;52.268;6.770;2023-04-03T15:45:30;2.10;;;0.97;;
21352;SDS011;10834;52.268;6.770;2023-04-03T15:48:17;1.03;;;0.70;;
21352;SDS011;10834;52.268;6.770;2023-04-03T15:51:04;2.63;;;0.80;;
21352;SDS011;10834;52.268;6.770;2023-04-03T15:53:51;3.10;;;0.77;;
21352;SDS011;10834;52.268;6.770;2023-04-03T15:56:37;1.57;;;0.80;;
21352;SDS011;10834;52.268;6.770;2023-04-03T15:59:23;3.57;;;1.00;;
21352;SDS011;10834;52.268;6.770;2023-04-03T16:02:09;2.23;;;1.00;;
21352;SDS011;10834;52.268;6.770;2023-04-03T16:04:59;1.20;;;0.87;;
21352;SDS011;10834;52.268;6.770;2023-04-03T16:07:45;5.67;;;1.20;;
21352;SDS011;10834;52.268;6.770;2023-04-03T16:10:31;1.93;;;0.70;;
21352;SDS011;10834;52.268;6.770;2023-04-03T16:13:18;3.30;;;0.90;;
21352;SDS011;10834;52.268;6.770;2023-04-03T16:16:04;3.53;;;0.93;;
21352;SDS011;10834;52.268;6.770;2023-04-03T16:18:51;6.53;;;1.30;;
21352;SDS011;10834;52.268;6.770;2023-04-03T16:21:38;1.87;;;0.77;;
21352;SDS011;10834;52.268;6.770;2023-04-03T16:24:24;2.37;;;0.70;;
21352;SDS011;10834;52.268;6.770;2023-04-03T16:27:11;2.37;;;0.90;;
21352;SDS011;10834;52.268;6.770;2023-04-03T16:29:57;2.67;;;0.80;;
21352;SDS011;10834;52.268;6.770;2023-04-03T16:32:43;1.00;;;0.80;;
21352;SDS011;10834;52.268;6.770;2023-04-03T16:35:29;2.50;;;1.07;;
21352;SDS011;10834;52.268;6.770;2023-04-03T16:38:16;1.37;;;0.87;;
21352;SDS011;10834;52.268;6.770;2023-04-03T16:41:04;2.90;;;0.90;;
21352;SDS011;10834;52.268;6.770;2023-04-03T16:43:50;1.73;;;0.83;;
21352;SDS011;10834;52.268;6.770;2023-04-03T16:46:36;2.07;;;1.10;;
21352;SDS011;10834;52.268;6.770;2023-04-03T16:49:22;1.63;;;1.10;;
21352;SDS011;10834;52.268;6.770;2023-04-03T16:52:09;2.20;;;0.60;;
21352;SDS011;10834;52.268;6.770;2023-04-03T16:54:54;2.33;;;1.00;;
21352;SDS011;10834;52.268;6.770;2023-04-03T16:57:40;2.43;;;0.73;;
21352;SDS011;10834;52.268;6.770;2023-04-03T17:00:29;1.23;;;0.73;;
21352;SDS011;10834;52.268;6.770;2023-04-03T17:03:16;3.57;;;0.93;;
21352;SDS011;10834;52.268;6.770;2023-04-03T17:06:02;1.73;;;1.33;;
21352;SDS011;10834;52.268;6.770;2023-04-03T17:08:48;4.47;;;0.80;;
21352;SDS011;10834;52.268;6.770;2023-04-03T17:11:36;2.00;;;1.20;;
21352;SDS011;10834;52.268;6.770;2023-04-03T17:14:23;3.23;;;1.00;;
21352;SDS011;10834;52.268;6.770;2023-04-03T17:17:09;3.70;;;1.03;;
21352;SDS011;10834;52.268;6.770;2023-04-03T17:19:56;1.13;;;0.83;;
21352;SDS011;10834;52.268;6.770;2023-04-03T17:22:42;3.53;;;1.10;;
21352;SDS011;10834;52.268;6.770;2023-04-03T17:25:29;3.23;;;1.10;;
21352;SDS011;10834;52.268;6.770;2023-04-03T17:28:15;3.20;;;1.17;;
21352;SDS011;10834;52.268;6.770;2023-04-03T17:31:02;2.90;;;0.90;;
21352;SDS011;10834;52.268;6.770;2023-04-03T17:33:48;5.80;;;0.90;;
21352;SDS011;10834;52.268;6.770;2023-04-03T17:36:34;2.70;;;1.00;;
21352;SDS011;10834;52.268;6.770;2023-04-03T17:39:20;1.90;;;0.80;;
21352;SDS011;10834;52.268;6.770;2023-04-03T17:42:06;5.70;;;0.90;;
21352;SDS011;10834;52.268;6.770;2023-04-03T17:44:52;2.40;;;1.07;;
21352;SDS011;10834;52.268;6.770;2023-04-03T17:47:38;2.83;;;1.07;;
21352;SDS011;10834;52.268;6.770;2023-04-03T17:50:24;2.43;;;1.40;;
21352;SDS011;10834;52.268;6.770;2023-04-03T17:53:11;3.73;;;1.10;;
21352;SDS011;10834;52.268;6.770;2023-04-03T17:55:57;1.07;;;0.87;;
21352;SDS011;10834;52.268;6.770;2023-04-03T17:58:43;4.90;;;0.90;;
21352;SDS011;10834;52.268;6.770;2023-04-03T18:01:30;1.83;;;0.93;;
21352;SDS011;10834;52.268;6.770;2023-04-03T18:04:17;5.07;;;0.90;;
21352;SDS011;10834;52.268;6.770;2023-04-03T18:07:04;3.97;;;1.37;;
21352;SDS011;10834;52.268;6.770;2023-04-03T18:09:54;4.33;;;1.60;;
21352;SDS011;10834;52.268;6.770;2023-04-03T18:12:41;2.67;;;1.30;;
21352;SDS011;10834;52.268;6.770;2023-04-03T18:15:28;2.27;;;1.00;;
21352;SDS011;10834;52.268;6.770;2023-04-03T18:18:15;1.83;;;0.90;;
21352;SDS011;10834;52.268;6.770;2023-04-03T18:21:01;3.10;;;1.00;;
21352;SDS011;10834;52.268;6.770;2023-04-03T18:23:49;5.77;;;1.33;;
21352;SDS011;10834;52.268;6.770;2023-04-03T18:26:38;3.43;;;1.17;;
21352;SDS011;10834;52.268;6.770;2023-04-03T18:29:25;3.47;;;1.40;;
21352;SDS011;10834;52.268;6.770;2023-04-03T18:32:15;1.50;;;0.87;;
21352;SDS011;10834;52.268;6.770;2023-04-03T18:35:03;1.80;;;1.10;;
21352;SDS011;10834;52.268;6.770;2023-04-03T18:37:50;2.83;;;1.40;;